sensor_id;sensor_type;location;lat;lon;timestamp;P1;durP1;ratioP1;P2;durP2;ratioP2
50853;SDS011;44154;45.506;-122.806;2023-04-24T00:01:03;4.75;;;1.55;;
50853;SDS011;44154;45.506;-122.806;2023-04-24T00:03:32;3.47;;;1.05;;
50853;SDS011;44154;45.506;-122.806;2023-04-24T00:05:58;4.03;;;1.40;;
50853;SDS011;44154;45.506;-122.806;2023-04-24T00:08:26;5.80;;;1.45;;
50853;SDS011;44154;45.506;-122.806;2023-04-24T00:10:52;3.83;;;1.67;;
50853;SDS011;44154;45.506;-122.806;2023-04-24T00:13:18;7.28;;;2.45;;
50853;SDS011;44154;45.506;-122.806;2023-04-24T00:15:44;6.38;;;1.90;;
50853;SDS011;44154;45.506;-122.806;2023-04-24T00:18:10;5.68;;;2.15;;
50853;SDS011;44154;45.506;-122.806;2023-04-24T00:20:36;7.82;;;2.85;;
50853;SDS011;44154;45.506;-122.806;2023-04-24T00:23:03;12.57;;;3.30;;
50853;SDS011;44154;45.506;-122.806;2023-04-24T00:25:29;7.55;;;3.05;;
50853;SDS011;44154;45.506;-122.806;2023-04-24T00:27:55;11.63;;;3.30;;
50853;SDS011;44154;45.506;-122.806;2023-04-24T00:30:21;12.95;;;4.38;;
50853;SDS011;44154;45.506;-122.806;2023-04-24T00:32:47;13.68;;;4.30;;
50853;SDS011;44154;45.506;-122.806;2023-04-24T00:35:13;10.75;;;4.32;;
50853;SDS011;44154;45.506;-122.806;2023-04-24T00:37:40;14.57;;;6.00;;
50853;SDS011;44154;45.506;-122.806;2023-04-24T00:40:06;14.50;;;4.75;;
50853;SDS011;44154;45.506;-122.806;2023-04-24T00:42:33;11.75;;;5.00;;
50853;SDS011;44154;45.506;-122.806;2023-04-24T00:44:59;10.50;;;3.80;;
50853;SDS011;44154;45.506;-122.806;2023-04-24T00:47:28;10.77;;;4.72;;
50853;SDS011;44154;45.506;-122.806;2023-04-24T00:49:55;10.25;;;4.60;;
50853;SDS011;44154;45.506;-122.806;2023-04-24T00:52:21;9.05;;;3.85;;
50853;SDS011;44154;45.506;-122.806;2023-04-24T00:54:49;9.70;;;3.70;;
50853;SDS011;44154;45.506;-122.806;2023-04-24T00:57:15;8.40;;;3.83;;
50853;SDS011;44154;45.506;-122.806;2023-04-24T00:59:42;10.75;;;4.40;;
50853;SDS011;44154;45.506;-122.806;2023-04-24T01:02:09;9.38;;;4.10;;
50853;SDS011;44154;45.506;-122.806;2023-04-24T01:04:36;10.07;;;3.10;;
50853;SDS011;44154;45.506;-122.806;2023-04-24T01:07:03;5.20;;;2.58;;
50853;SDS011;44154;45.506;-122.806;2023-04-24T01:09:36;6.07;;;2.20;;
50853;SDS011;44154;45.506;-122.806;2023-04-24T01:12:06;6.55;;;2.40;;
50853;SDS011;44154;45.506;-122.806;2023-04-24T01:14:32;7.32;;;2.22;;
50853;SDS011;44154;45.506;-122.806;2023-04-24T01:16:59;5.40;;;2.28;;
50853;SDS011;44154;45.506;-122.806;2023-04-24T01:19:25;8.30;;;2.70;;
50853;SDS011;44154;45.506;-122.806;2023-04-24T01:21:52;8.32;;;2.13;;
50853;SDS011;44154;45.506;-122.806;2023-04-24T01:24:22;9.90;;;2.70;;
50853;SDS011;44154;45.506;-122.806;2023-04-24T01:26:48;7.18;;;1.60;;
50853;SDS011;44154;45.506;-122.806;2023-04-24T01:29:15;11.35;;;2.90;;
50853;SDS011;44154;45.506;-122.806;2023-04-24T01:31:41;7.25;;;2.33;;
50853;SDS011;44154;45.506;-122.806;2023-04-24T01:34:08;9.05;;;2.45;;
50853;SDS011;44154;45.506;-122.806;2023-04-24T01:36:35;11.52;;;2.75;;
50853;SDS011;44154;45.506;-122.806;2023-04-24T01:39:01;8.30;;;2.47;;
50853;SDS011;44154;45.506;-122.806;2023-04-24T01:41:29;9.32;;;2.80;;
50853;SDS011;44154;45.506;-122.806;2023-04-24T01:43:56;7.50;;;2.72;;
50853;SDS011;44154;45.506;-122.806;2023-04-24T01:46:23;6.78;;;2.65;;
50853;SDS011;44154;45.506;-122.806;2023-04-24T01:48:50;5.60;;;2.47;;
50853;SDS011;44154;45.506;-122.806;2023-04-24T01:51:17;5.82;;;2.17;;
50853;SDS011;44154;45.506;-122.806;2023-04-24T01:53:43;5.97;;;2.65;;
50853;SDS011;44154;45.506;-122.806;2023-04-24T01:56:10;10.85;;;2.65;;
50853;SDS011;44154;45.506;-122.806;2023-04-24T01:58:37;7.18;;;2.53;;
50853;SDS011;44154;45.506;-122.806;2023-04-24T02:01:03;6.70;;;3.05;;
50853;SDS011;44154;45.506;-122.806;2023-04-24T02:03:29;6.32;;;2.53;;
50853;SDS011;44154;45.506;-122.806;2023-04-24T02:05:55;7.13;;;2.50;;
50853;SDS011;44154;45.506;-122.806;2023-04-24T02:08:21;8.60;;;2.30;;
50853;SDS011;44154;45.506;-122.806;2023-04-24T02:10:48;8.52;;;2.83;;
50853;SDS011;44154;45.506;-122.806;2023-04-24T02:13:14;9.95;;;2.90;;
50853;SDS011;44154;45.506;-122.806;2023-04-24T02:15:40;8.60;;;3.63;;
50853;SDS011;44154;45.506;-122.806;2023-04-24T02:19:57;11.35;;;3.33;;
50853;SDS011;44154;45.506;-122.806;2023-04-24T02:22:23;10.38;;;3.65;;
50853;SDS011;44154;45.506;-122.806;2023-04-24T02:24:49;12.88;;;3.60;;
50853;SDS011;44154;45.506;-122.806;2023-04-24T02:27:16;11.52;;;3.55;;
50853;SDS011;44154;45.506;-122.806;2023-04-24T02:29:42;10.18;;;2.85;;
50853;SDS011;44154;45.506;-122.806;2023-04-24T02:32:08;8.18;;;3.30;;
50853;SDS011;44154;45.506;-122.806;2023-04-24T02:34:37;9.82;;;3.22;;
50853;SDS011;44154;45.506;-122.806;2023-04-24T02:37:03;12.85;;;3.50;;
50853;SDS011;44154;45.506;-122.806;2023-04-24T02:39:30;11.88;;;3.90;;
50853;SDS011;44154;45.506;-122.806;2023-04-24T02:41:56;9.10;;;3.55;;
50853;SDS011;44154;45.506;-122.806;2023-04-24T02:44:22;13.60;;;3.75;;
50853;SDS011;44154;45.506;-122.806;2023-04-24T02:46:48;8.68;;;3.53;;
50853;SDS011;44154;45.506;-122.806;2023-04-24T02:49:14;11.68;;;3.97;;
50853;SDS011;44154;45.506;-122.806;2023-04-24T02:51:41;12.70;;;3.60;;
50853;SDS011;44154;45.506;-122.806;2023-04-24T02:54:07;10.52;;;3.67;;
50853;SDS011;44154;45.506;-122.806;2023-04-24T02:56:35;15.48;;;3.90;;
50853;SDS011;44154;45.506;-122.806;2023-04-24T02:59:01;8.77;;;3.33;;
50853;SDS011;44154;45.506;-122.806;2023-04-24T03:01:28;11.25;;;3.80;;
50853;SDS011;44154;45.506;-122.806;2023-04-24T03:03:54;8.60;;;3.25;;
50853;SDS011;44154;45.506;-122.806;2023-04-24T03:06:20;10.13;;;4.05;;
50853;SDS011;44154;45.506;-122.806;2023-04-24T03:08:47;8.73;;;2.80;;
50853;SDS011;44154;45.506;-122.806;2023-04-24T03:11:13;9.30;;;3.38;;
50853;SDS011;44154;45.506;-122.806;2023-04-24T03:13:39;7.32;;;3.00;;
50853;SDS011;44154;45.506;-122.806;2023-04-24T03:16:05;8.95;;;3.28;;
50853;SDS011;44154;45.506;-122.806;2023-04-24T03:18:31;8.35;;;3.25;;
50853;SDS011;44154;45.506;-122.806;2023-04-24T03:20:57;9.05;;;3.10;;
50853;SDS011;44154;45.506;-122.806;2023-04-24T03:23:24;8.30;;;3.22;;
50853;SDS011;44154;45.506;-122.806;2023-04-24T03:25:50;7.10;;;3.20;;
50853;SDS011;44154;45.506;-122.806;2023-04-24T03:28:17;9.02;;;2.75;;
50853;SDS011;44154;45.506;-122.806;2023-04-24T03:30:43;8.30;;;2.55;;
50853;SDS011;44154;45.506;-122.806;2023-04-24T03:33:09;7.13;;;2.25;;
50853;SDS011;44154;45.506;-122.806;2023-04-24T03:35:35;6.28;;;2.25;;
50853;SDS011;44154;45.506;-122.806;2023-04-24T03:38:01;6.45;;;2.13;;
50853;SDS011;44154;45.506;-122.806;2023-04-24T03:40:29;6.07;;;2.80;;
50853;SDS011;44154;45.506;-122.806;2023-04-24T03:42:56;7.00;;;2.35;;
50853;SDS011;44154;45.506;-122.806;2023-04-24T03:45:22;6.07;;;2.13;;
50853;SDS011;44154;45.506;-122.806;2023-04-24T03:47:49;5.68;;;2.45;;
50853;SDS011;44154;45.506;-122.806;2023-04-24T03:50:15;6.10;;;2.60;;
50853;SDS011;44154;45.506;-122.806;2023-04-24T03:52:41;5.90;;;2.78;;
50853;SDS011;44154;45.506;-122.806;2023-04-24T03:55:07;6.32;;;2.70;;
50853;SDS011;44154;45.506;-122.806;2023-04-24T03:57:34;7.65;;;2.90;;
50853;SDS011;44154;45.506;-122.806;2023-04-24T04:00:00;6.40;;;2.78;;
50853;SDS011;44154;45.506;-122.806;2023-04-24T04:02:26;6.65;;;3.08;;
50853;SDS011;44154;45.506;-122.806;2023-04-24T04:04:53;8.90;;;3.38;;
50853;SDS011;44154;45.506;-122.806;2023-04-24T04:07:19;8.75;;;3.92;;
50853;SDS011;44154;45.506;-122.806;2023-04-24T04:09:45;7.22;;;3.30;;
50853;SDS011;44154;45.506;-122.806;2023-04-24T04:12:12;6.47;;;3.20;;
50853;SDS011;44154;45.506;-122.806;2023-04-24T04:14:38;6.32;;;3.05;;
50853;SDS011;44154;45.506;-122.806;2023-04-24T04:17:04;6.45;;;3.40;;
50853;SDS011;44154;45.506;-122.806;2023-04-24T04:19:30;7.35;;;3.47;;
50853;SDS011;44154;45.506;-122.806;2023-04-24T04:21:56;6.18;;;3.35;;
50853;SDS011;44154;45.506;-122.806;2023-04-24T04:24:22;5.88;;;3.35;;
50853;SDS011;44154;45.506;-122.806;2023-04-24T04:26:49;5.70;;;2.85;;
50853;SDS011;44154;45.506;-122.806;2023-04-24T04:29:16;6.55;;;3.17;;
50853;SDS011;44154;45.506;-122.806;2023-04-24T04:31:45;6.45;;;3.15;;
50853;SDS011;44154;45.506;-122.806;2023-04-24T04:34:12;5.82;;;3.03;;
50853;SDS011;44154;45.506;-122.806;2023-04-24T04:36:39;6.68;;;3.25;;
50853;SDS011;44154;45.506;-122.806;2023-04-24T04:39:06;15.43;;;12.20;;
50853;SDS011;44154;45.506;-122.806;2023-04-24T04:41:33;8.65;;;7.72;;
50853;SDS011;44154;45.506;-122.806;2023-04-24T04:44:00;7.72;;;6.38;;
50853;SDS011;44154;45.506;-122.806;2023-04-24T04:46:30;7.88;;;6.75;;
50853;SDS011;44154;45.506;-122.806;2023-04-24T04:48:59;8.02;;;6.55;;
50853;SDS011;44154;45.506;-122.806;2023-04-24T04:51:28;8.43;;;7.10;;
50853;SDS011;44154;45.506;-122.806;2023-04-24T04:53:55;8.52;;;6.93;;
50853;SDS011;44154;45.506;-122.806;2023-04-24T04:56:21;10.88;;;8.35;;
50853;SDS011;44154;45.506;-122.806;2023-04-24T04:58:47;10.20;;;7.85;;
50853;SDS011;44154;45.506;-122.806;2023-04-24T05:01:14;11.77;;;8.48;;
50853;SDS011;44154;45.506;-122.806;2023-04-24T05:03:40;11.40;;;8.52;;
50853;SDS011;44154;45.506;-122.806;2023-04-24T05:06:06;9.75;;;7.88;;
50853;SDS011;44154;45.506;-122.806;2023-04-24T05:08:33;9.93;;;8.10;;
50853;SDS011;44154;45.506;-122.806;2023-04-24T05:10:59;11.68;;;8.30;;
50853;SDS011;44154;45.506;-122.806;2023-04-24T05:13:25;12.07;;;9.27;;
50853;SDS011;44154;45.506;-122.806;2023-04-24T05:15:51;11.20;;;8.40;;
50853;SDS011;44154;45.506;-122.806;2023-04-24T05:18:18;11.98;;;8.90;;
50853;SDS011;44154;45.506;-122.806;2023-04-24T05:20:44;13.15;;;10.23;;
50853;SDS011;44154;45.506;-122.806;2023-04-24T05:23:10;9.82;;;8.23;;
50853;SDS011;44154;45.506;-122.806;2023-04-24T05:25:37;10.40;;;8.25;;
50853;SDS011;44154;45.506;-122.806;2023-04-24T05:28:05;17.75;;;9.27;;
50853;SDS011;44154;45.506;-122.806;2023-04-24T05:30:31;9.15;;;5.85;;
50853;SDS011;44154;45.506;-122.806;2023-04-24T05:32:57;9.85;;;7.20;;
50853;SDS011;44154;45.506;-122.806;2023-04-24T05:35:24;10.40;;;8.45;;
50853;SDS011;44154;45.506;-122.806;2023-04-24T05:37:50;10.50;;;8.10;;
50853;SDS011;44154;45.506;-122.806;2023-04-24T05:40:16;10.38;;;8.25;;
50853;SDS011;44154;45.506;-122.806;2023-04-24T05:42:42;10.63;;;7.40;;
50853;SDS011;44154;45.506;-122.806;2023-04-24T05:45:08;10.60;;;8.30;;
50853;SDS011;44154;45.506;-122.806;2023-04-24T05:47:40;12.70;;;9.43;;
50853;SDS011;44154;45.506;-122.806;2023-04-24T05:50:06;9.65;;;8.10;;
50853;SDS011;44154;45.506;-122.806;2023-04-24T05:52:32;11.13;;;8.90;;
50853;SDS011;44154;45.506;-122.806;2023-04-24T05:54:59;11.23;;;9.57;;
50853;SDS011;44154;45.506;-122.806;2023-04-24T05:57:25;10.82;;;8.63;;
50853;SDS011;44154;45.506;-122.806;2023-04-24T05:59:51;11.35;;;9.13;;
50853;SDS011;44154;45.506;-122.806;2023-04-24T06:02:17;13.00;;;10.63;;
50853;SDS011;44154;45.506;-122.806;2023-04-24T06:04:44;10.45;;;8.15;;
50853;SDS011;44154;45.506;-122.806;2023-04-24T06:07:10;50.40;;;45.50;;
50853;SDS011;44154;45.506;-122.806;2023-04-24T06:09:37;24.73;;;22.17;;
50853;SDS011;44154;45.506;-122.806;2023-04-24T06:12:03;27.08;;;24.48;;
50853;SDS011;44154;45.506;-122.806;2023-04-24T06:14:29;20.63;;;18.45;;
50853;SDS011;44154;45.506;-122.806;2023-04-24T06:16:55;17.00;;;15.40;;
50853;SDS011;44154;45.506;-122.806;2023-04-24T06:19:22;17.00;;;15.30;;
50853;SDS011;44154;45.506;-122.806;2023-04-24T06:21:48;20.48;;;18.48;;
50853;SDS011;44154;45.506;-122.806;2023-04-24T06:24:14;18.10;;;16.10;;
50853;SDS011;44154;45.506;-122.806;2023-04-24T06:26:43;18.88;;;16.98;;
50853;SDS011;44154;45.506;-122.806;2023-04-24T06:29:10;20.48;;;18.40;;
50853;SDS011;44154;45.506;-122.806;2023-04-24T06:31:36;23.75;;;21.30;;
50853;SDS011;44154;45.506;-122.806;2023-04-24T06:34:03;22.02;;;19.73;;
50853;SDS011;44154;45.506;-122.806;2023-04-24T06:36:29;21.02;;;18.85;;
50853;SDS011;44154;45.506;-122.806;2023-04-24T06:38:56;20.33;;;18.35;;
50853;SDS011;44154;45.506;-122.806;2023-04-24T06:41:22;19.02;;;17.10;;
50853;SDS011;44154;45.506;-122.806;2023-04-24T06:43:49;20.25;;;18.08;;
50853;SDS011;44154;45.506;-122.806;2023-04-24T06:46:15;20.13;;;18.13;;
50853;SDS011;44154;45.506;-122.806;2023-04-24T06:48:41;20.60;;;18.05;;
50853;SDS011;44154;45.506;-122.806;2023-04-24T06:51:07;19.35;;;17.38;;
50853;SDS011;44154;45.506;-122.806;2023-04-24T06:53:34;20.38;;;18.33;;
50853;SDS011;44154;45.506;-122.806;2023-04-24T06:56:00;21.40;;;19.25;;
50853;SDS011;44154;45.506;-122.806;2023-04-24T06:58:26;21.25;;;19.15;;
50853;SDS011;44154;45.506;-122.806;2023-04-24T07:00:52;20.40;;;18.33;;
50853;SDS011;44154;45.506;-122.806;2023-04-24T07:03:19;21.15;;;18.95;;
50853;SDS011;44154;45.506;-122.806;2023-04-24T07:05:45;21.80;;;19.70;;
50853;SDS011;44154;45.506;-122.806;2023-04-24T07:08:11;20.50;;;18.30;;
50853;SDS011;44154;45.506;-122.806;2023-04-24T07:10:38;42.15;;;38.08;;
50853;SDS011;44154;45.506;-122.806;2023-04-24T07:13:04;47.00;;;42.50;;
50853;SDS011;44154;45.506;-122.806;2023-04-24T07:15:32;36.10;;;32.70;;
50853;SDS011;44154;45.506;-122.806;2023-04-24T07:17:58;32.28;;;29.17;;
50853;SDS011;44154;45.506;-122.806;2023-04-24T07:20:24;24.75;;;22.25;;
50853;SDS011;44154;45.506;-122.806;2023-04-24T07:22:51;24.60;;;22.30;;
50853;SDS011;44154;45.506;-122.806;2023-04-24T07:25:19;23.42;;;21.02;;
50853;SDS011;44154;45.506;-122.806;2023-04-24T07:27:45;23.95;;;21.60;;
50853;SDS011;44154;45.506;-122.806;2023-04-24T07:30:11;26.05;;;23.40;;
50853;SDS011;44154;45.506;-122.806;2023-04-24T07:32:38;25.70;;;23.10;;
50853;SDS011;44154;45.506;-122.806;2023-04-24T07:35:04;25.25;;;22.77;;
50853;SDS011;44154;45.506;-122.806;2023-04-24T07:37:31;25.83;;;23.25;;
50853;SDS011;44154;45.506;-122.806;2023-04-24T07:39:57;26.27;;;23.70;;
50853;SDS011;44154;45.506;-122.806;2023-04-24T07:42:23;26.48;;;23.98;;
50853;SDS011;44154;45.506;-122.806;2023-04-24T07:44:49;26.15;;;23.45;;
50853;SDS011;44154;45.506;-122.806;2023-04-24T07:47:16;25.65;;;23.05;;
50853;SDS011;44154;45.506;-122.806;2023-04-24T07:49:42;25.83;;;23.23;;
50853;SDS011;44154;45.506;-122.806;2023-04-24T07:52:08;29.75;;;26.83;;
50853;SDS011;44154;45.506;-122.806;2023-04-24T07:54:35;20.17;;;18.15;;
50853;SDS011;44154;45.506;-122.806;2023-04-24T07:57:02;25.75;;;23.00;;
50853;SDS011;44154;45.506;-122.806;2023-04-24T07:59:29;24.60;;;22.05;;
50853;SDS011;44154;45.506;-122.806;2023-04-24T08:01:56;25.65;;;23.13;;
50853;SDS011;44154;45.506;-122.806;2023-04-24T08:04:22;23.40;;;21.02;;
50853;SDS011;44154;45.506;-122.806;2023-04-24T08:06:48;24.80;;;22.25;;
50853;SDS011;44154;45.506;-122.806;2023-04-24T08:09:14;30.67;;;27.77;;
50853;SDS011;44154;45.506;-122.806;2023-04-24T08:11:40;44.33;;;40.15;;
50853;SDS011;44154;45.506;-122.806;2023-04-24T08:14:07;34.35;;;31.02;;
50853;SDS011;44154;45.506;-122.806;2023-04-24T08:16:33;26.63;;;24.05;;
50853;SDS011;44154;45.506;-122.806;2023-04-24T08:18:59;27.27;;;24.65;;
50853;SDS011;44154;45.506;-122.806;2023-04-24T08:21:25;26.35;;;23.75;;
50853;SDS011;44154;45.506;-122.806;2023-04-24T08:23:52;28.48;;;25.77;;
50853;SDS011;44154;45.506;-122.806;2023-04-24T08:26:18;27.73;;;24.95;;
50853;SDS011;44154;45.506;-122.806;2023-04-24T08:28:44;26.30;;;23.73;;
50853;SDS011;44154;45.506;-122.806;2023-04-24T08:31:11;27.75;;;24.98;;
50853;SDS011;44154;45.506;-122.806;2023-04-24T08:33:37;26.65;;;24.08;;
50853;SDS011;44154;45.506;-122.806;2023-04-24T08:36:04;29.77;;;26.88;;
50853;SDS011;44154;45.506;-122.806;2023-04-24T08:38:31;28.17;;;25.27;;
50853;SDS011;44154;45.506;-122.806;2023-04-24T08:40:58;29.98;;;27.13;;
50853;SDS011;44154;45.506;-122.806;2023-04-24T08:43:26;29.33;;;26.42;;
50853;SDS011;44154;45.506;-122.806;2023-04-24T08:45:54;31.48;;;28.38;;
50853;SDS011;44154;45.506;-122.806;2023-04-24T08:48:22;28.48;;;25.70;;
50853;SDS011;44154;45.506;-122.806;2023-04-24T08:50:50;30.02;;;27.08;;
50853;SDS011;44154;45.506;-122.806;2023-04-24T08:53:16;28.73;;;25.98;;
50853;SDS011;44154;45.506;-122.806;2023-04-24T08:55:44;27.65;;;24.83;;
50853;SDS011;44154;45.506;-122.806;2023-04-24T08:58:13;33.13;;;29.90;;
50853;SDS011;44154;45.506;-122.806;2023-04-24T09:00:41;46.17;;;41.72;;
50853;SDS011;44154;45.506;-122.806;2023-04-24T09:03:15;38.60;;;34.95;;
50853;SDS011;44154;45.506;-122.806;2023-04-24T09:05:46;27.60;;;24.95;;
50853;SDS011;44154;45.506;-122.806;2023-04-24T09:08:14;25.10;;;22.70;;
50853;SDS011;44154;45.506;-122.806;2023-04-24T09:10:43;25.65;;;23.13;;
50853;SDS011;44154;45.506;-122.806;2023-04-24T09:13:10;28.10;;;25.50;;
50853;SDS011;44154;45.506;-122.806;2023-04-24T09:15:37;27.90;;;25.30;;
50853;SDS011;44154;45.506;-122.806;2023-04-24T09:18:04;28.95;;;26.08;;
50853;SDS011;44154;45.506;-122.806;2023-04-24T09:20:31;27.40;;;24.80;;
50853;SDS011;44154;45.506;-122.806;2023-04-24T09:22:58;26.80;;;24.17;;
50853;SDS011;44154;45.506;-122.806;2023-04-24T09:25:30;25.65;;;23.17;;
50853;SDS011;44154;45.506;-122.806;2023-04-24T09:28:01;28.92;;;26.13;;
50853;SDS011;44154;45.506;-122.806;2023-04-24T09:30:29;27.25;;;24.55;;
50853;SDS011;44154;45.506;-122.806;2023-04-24T09:33:14;28.38;;;25.70;;
50853;SDS011;44154;45.506;-122.806;2023-04-24T09:35:41;28.83;;;25.92;;
50853;SDS011;44154;45.506;-122.806;2023-04-24T09:38:08;27.83;;;25.02;;
50853;SDS011;44154;45.506;-122.806;2023-04-24T09:40:35;33.40;;;30.27;;
50853;SDS011;44154;45.506;-122.806;2023-04-24T09:43:02;31.48;;;28.60;;
50853;SDS011;44154;45.506;-122.806;2023-04-24T09:45:29;30.70;;;27.73;;
50853;SDS011;44154;45.506;-122.806;2023-04-24T09:48:01;28.13;;;25.52;;
50853;SDS011;44154;45.506;-122.806;2023-04-24T09:50:29;30.35;;;27.35;;
50853;SDS011;44154;45.506;-122.806;2023-04-24T09:53:05;28.83;;;26.02;;
50853;SDS011;44154;45.506;-122.806;2023-04-24T09:55:39;26.75;;;24.30;;
50853;SDS011;44154;45.506;-122.806;2023-04-24T09:58:11;25.15;;;22.73;;
50853;SDS011;44154;45.506;-122.806;2023-04-24T10:00:37;27.45;;;24.75;;
50853;SDS011;44154;45.506;-122.806;2023-04-24T10:03:04;25.98;;;23.38;;
50853;SDS011;44154;45.506;-122.806;2023-04-24T10:05:34;25.05;;;22.55;;
50853;SDS011;44154;45.506;-122.806;2023-04-24T10:08:06;26.27;;;23.63;;
50853;SDS011;44154;45.506;-122.806;2023-04-24T10:10:34;24.10;;;21.77;;
50853;SDS011;44154;45.506;-122.806;2023-04-24T10:13:04;23.50;;;21.17;;
50853;SDS011;44154;45.506;-122.806;2023-04-24T10:15:30;25.08;;;22.58;;
50853;SDS011;44154;45.506;-122.806;2023-04-24T10:17:58;25.63;;;23.15;;
50853;SDS011;44154;45.506;-122.806;2023-04-24T10:20:26;24.73;;;22.40;;
50853;SDS011;44154;45.506;-122.806;2023-04-24T10:22:56;64.15;;;57.97;;
50853;SDS011;44154;45.506;-122.806;2023-04-24T10:25:28;43.28;;;39.05;;
50853;SDS011;44154;45.506;-122.806;2023-04-24T10:27:56;36.40;;;32.95;;
50853;SDS011;44154;45.506;-122.806;2023-04-24T10:30:26;22.85;;;20.60;;
50853;SDS011;44154;45.506;-122.806;2023-04-24T10:32:54;22.92;;;20.77;;
50853;SDS011;44154;45.506;-122.806;2023-04-24T10:35:21;21.95;;;19.83;;
50853;SDS011;44154;45.506;-122.806;2023-04-24T10:37:57;22.85;;;20.58;;
50853;SDS011;44154;45.506;-122.806;2023-04-24T10:40:44;21.95;;;19.75;;
50853;SDS011;44154;45.506;-122.806;2023-04-24T10:43:10;22.27;;;19.98;;
50853;SDS011;44154;45.506;-122.806;2023-04-24T10:45:41;22.27;;;20.15;;
50853;SDS011;44154;45.506;-122.806;2023-04-24T10:48:29;21.75;;;19.63;;
50853;SDS011;44154;45.506;-122.806;2023-04-24T10:50:57;21.00;;;18.95;;
50853;SDS011;44154;45.506;-122.806;2023-04-24T10:53:25;21.38;;;19.27;;
50853;SDS011;44154;45.506;-122.806;2023-04-24T10:56:09;20.25;;;18.27;;
50853;SDS011;44154;45.506;-122.806;2023-04-24T10:58:42;21.15;;;18.95;;
50853;SDS011;44154;45.506;-122.806;2023-04-24T11:03:59;19.63;;;17.73;;
50853;SDS011;44154;45.506;-122.806;2023-04-24T11:06:29;41.13;;;37.20;;
50853;SDS011;44154;45.506;-122.806;2023-04-24T11:09:15;43.83;;;39.65;;
50853;SDS011;44154;45.506;-122.806;2023-04-24T11:11:45;28.58;;;25.88;;
50853;SDS011;44154;45.506;-122.806;2023-04-24T11:14:15;22.88;;;20.58;;
50853;SDS011;44154;45.506;-122.806;2023-04-24T11:16:46;25.40;;;22.90;;
50853;SDS011;44154;45.506;-122.806;2023-04-24T11:19:21;24.30;;;21.90;;
50853;SDS011;44154;45.506;-122.806;2023-04-24T11:21:58;25.50;;;23.23;;
50853;SDS011;44154;45.506;-122.806;2023-04-24T11:27:05;26.83;;;24.23;;
50853;SDS011;44154;45.506;-122.806;2023-04-24T11:35:17;23.15;;;20.83;;
50853;SDS011;44154;45.506;-122.806;2023-04-24T11:37:45;22.05;;;19.85;;
50853;SDS011;44154;45.506;-122.806;2023-04-24T11:40:15;22.40;;;20.15;;
50853;SDS011;44154;45.506;-122.806;2023-04-24T11:42:46;22.90;;;20.63;;
50853;SDS011;44154;45.506;-122.806;2023-04-24T11:45:14;21.95;;;19.75;;
50853;SDS011;44154;45.506;-122.806;2023-04-24T11:47:42;47.22;;;42.97;;
50853;SDS011;44154;45.506;-122.806;2023-04-24T11:50:14;40.78;;;36.88;;
50853;SDS011;44154;45.506;-122.806;2023-04-24T11:52:42;29.83;;;27.00;;
50853;SDS011;44154;45.506;-122.806;2023-04-24T11:57:53;28.02;;;25.23;;
50853;SDS011;44154;45.506;-122.806;2023-04-24T12:00:22;24.85;;;22.55;;
50853;SDS011;44154;45.506;-122.806;2023-04-24T12:02:50;25.13;;;22.73;;
50853;SDS011;44154;45.506;-122.806;2023-04-24T12:05:23;23.30;;;21.10;;
50853;SDS011;44154;45.506;-122.806;2023-04-24T12:07:53;23.80;;;21.40;;
50853;SDS011;44154;45.506;-122.806;2023-04-24T12:10:20;23.27;;;21.13;;
50853;SDS011;44154;45.506;-122.806;2023-04-24T12:12:48;23.55;;;21.25;;
50853;SDS011;44154;45.506;-122.806;2023-04-24T12:15:16;22.77;;;20.58;;
50853;SDS011;44154;45.506;-122.806;2023-04-24T12:17:44;23.40;;;21.13;;
50853;SDS011;44154;45.506;-122.806;2023-04-24T12:20:11;23.38;;;21.10;;
50853;SDS011;44154;45.506;-122.806;2023-04-24T12:22:48;23.05;;;20.92;;
50853;SDS011;44154;45.506;-122.806;2023-04-24T12:27:55;24.70;;;22.40;;
50853;SDS011;44154;45.506;-122.806;2023-04-24T12:30:47;41.13;;;37.38;;
50853;SDS011;44154;45.506;-122.806;2023-04-24T12:33:20;28.92;;;26.05;;
50853;SDS011;44154;45.506;-122.806;2023-04-24T12:35:47;34.97;;;31.75;;
50853;SDS011;44154;45.506;-122.806;2023-04-24T12:38:21;29.88;;;27.08;;
50853;SDS011;44154;45.506;-122.806;2023-04-24T12:41:04;20.65;;;18.65;;
50853;SDS011;44154;45.506;-122.806;2023-04-24T12:43:35;23.55;;;21.35;;
50853;SDS011;44154;45.506;-122.806;2023-04-24T12:46:02;26.20;;;23.80;;
50853;SDS011;44154;45.506;-122.806;2023-04-24T12:48:28;23.88;;;21.55;;
50853;SDS011;44154;45.506;-122.806;2023-04-24T12:50:59;22.15;;;20.08;;
50853;SDS011;44154;45.506;-122.806;2023-04-24T12:53:28;22.35;;;20.15;;
50853;SDS011;44154;45.506;-122.806;2023-04-24T12:55:57;21.63;;;19.58;;
50853;SDS011;44154;45.506;-122.806;2023-04-24T12:58:23;28.98;;;26.35;;
50853;SDS011;44154;45.506;-122.806;2023-04-24T13:00:50;28.10;;;25.40;;
50853;SDS011;44154;45.506;-122.806;2023-04-24T13:03:16;21.08;;;19.08;;
50853;SDS011;44154;45.506;-122.806;2023-04-24T13:05:43;18.63;;;16.83;;
50853;SDS011;44154;45.506;-122.806;2023-04-24T13:08:09;21.75;;;19.55;;
50853;SDS011;44154;45.506;-122.806;2023-04-24T13:10:35;20.73;;;18.77;;
50853;SDS011;44154;45.506;-122.806;2023-04-24T13:13:02;22.05;;;19.92;;
50853;SDS011;44154;45.506;-122.806;2023-04-24T13:15:28;21.38;;;19.42;;
50853;SDS011;44154;45.506;-122.806;2023-04-24T13:17:55;22.98;;;20.80;;
50853;SDS011;44154;45.506;-122.806;2023-04-24T13:20:21;22.67;;;20.42;;
50853;SDS011;44154;45.506;-122.806;2023-04-24T13:22:47;22.83;;;20.52;;
50853;SDS011;44154;45.506;-122.806;2023-04-24T13:25:13;20.75;;;18.67;;
50853;SDS011;44154;45.506;-122.806;2023-04-24T13:27:42;23.10;;;20.83;;
50853;SDS011;44154;45.506;-122.806;2023-04-24T13:30:08;21.98;;;19.85;;
50853;SDS011;44154;45.506;-122.806;2023-04-24T13:32:35;31.85;;;28.83;;
50853;SDS011;44154;45.506;-122.806;2023-04-24T13:35:01;22.88;;;20.73;;
50853;SDS011;44154;45.506;-122.806;2023-04-24T13:37:28;20.85;;;18.85;;
50853;SDS011;44154;45.506;-122.806;2023-04-24T13:39:54;18.38;;;16.60;;
50853;SDS011;44154;45.506;-122.806;2023-04-24T13:42:20;18.50;;;16.75;;
50853;SDS011;44154;45.506;-122.806;2023-04-24T13:44:46;19.40;;;17.55;;
50853;SDS011;44154;45.506;-122.806;2023-04-24T13:47:12;20.65;;;18.75;;
50853;SDS011;44154;45.506;-122.806;2023-04-24T13:49:39;20.08;;;18.08;;
50853;SDS011;44154;45.506;-122.806;2023-04-24T13:52:05;18.33;;;16.48;;
50853;SDS011;44154;45.506;-122.806;2023-04-24T13:54:31;24.70;;;22.38;;
50853;SDS011;44154;45.506;-122.806;2023-04-24T13:56:58;35.75;;;32.30;;
50853;SDS011;44154;45.506;-122.806;2023-04-24T13:59:24;32.53;;;29.42;;
50853;SDS011;44154;45.506;-122.806;2023-04-24T14:01:50;27.60;;;24.90;;
50853;SDS011;44154;45.506;-122.806;2023-04-24T14:04:16;25.90;;;23.40;;
50853;SDS011;44154;45.506;-122.806;2023-04-24T14:06:43;24.75;;;22.35;;
50853;SDS011;44154;45.506;-122.806;2023-04-24T14:09:09;20.13;;;18.15;;
50853;SDS011;44154;45.506;-122.806;2023-04-24T14:11:35;19.25;;;16.63;;
50853;SDS011;44154;45.506;-122.806;2023-04-24T14:14:02;18.85;;;17.05;;